Terminal Aerodrome Forecast
Issued by NWS

Home | Current Version | Previous Version | Text Only | Print | Product List | Glossary Off
Versions: 1 2 3 4 5 6 7 8 9 10 11 12 13 14 15 16 17

000
FTUS43 KBIS 291700
TAFJMS
TAF
KJMS 291733Z 2918/3018 07008KT P6SM OVC006
     FM292000 10010KT P6SM BKN015
     FM300200 12012KT P6SM BKN070
     FM301200 12015G23KT P6SM BKN008=

USA.gov is the U.S. government's official web portal to all federal, state and local government web resources and services.